Shingleton, Michigan
Current Conditions -  °F | °C
As of 5:54 PM on Thursday 18 Dec 2014 (Local Time) from KISQ Reporting Station
Clear Clear  
Wind Chill: 16°   Ceiling: Unl
Heat Index: 22°   Visibility: 10mi
Dew Point: 19°   Wind: 5mph
Humidity: 85%   Direction: 350°N
Pressure: 30.24"   Gusts: NA
Location:  46.35°N, 86.47°W
Report Text: KISQ 182254Z AUTO 35004KT 10SM CLR M05/M07 A3024 RMK AO2 T10541075
Loading
Personal Weather Stations






























Interactive Weather Map New forecast layout! Learn more

10-Day Weather Forecast

Advertisements
Track Severe Weather on mobile